Paracuru, Brazil
Current Conditions -  °F | °C
As of 3:00 PM on Saturday 20 Dec 2014 (Local Time) from SBFZ Reporting Station
Scattered Clouds Scattered Clouds  
Wind Chill: 84°   Ceiling: Unl
Heat Index: 87°   Visibility: 6mi
Dew Point: 68°   Wind: 20mph
Humidity: 58%   Direction: 100°E
Pressure: 29.85"   Gusts: NA
Location:  3.41°S, 39.03°W
Report Text: SBFZ 201800Z 10017KT 9999 SCT030 29/20 Q1011
Loading
Personal Weather Stations






























Interactive Weather Map New forecast layout! Learn more

10-Day Weather Forecast

Advertisements
Track Severe Weather on mobile